^^
Datos históricos de la estación: Murcia-Puente Tocinos
Diario Informe para Junio 27, 2019 Unidades:  Métrico    Inglés   Ambas
Diario Semanal Mensual Anual Configurable
  Máximo: Mínimo: Media:
Temperatura: 32.0 °C 24.4 °C 28.1 °C
Punto de rocio: 20.1 °C 15.1 °C 17.7 °C
Humedad: 73% 37% 55%
Velocidad viento: 27.4km/h 0.0km/h 11.8km/h
Racha viento: 48.1km/h - -
Viento- - SE
Presión: 1016.1 hPa 1014.1 hPa -
Precipitación: 0.0 mm    
Historical Graphs
 
 
Tabla de datos para Junio 27, 2019
Hora Temperatura Punto de rocio Presión Viento Velocidad viento Racha viento Humedad Intensidad lluvia(por hora) Nubes
00:04 25.2 °C 20.0 °C 1015.3 hPa NNW 2.3 km/h 7.4 km/h 73% 0.0 mm CLR
00:09 25.2 °C 20.0 °C 1015.3 hPa NW 3.2 km/h 5.6 km/h 73% 0.0 mm CLR
00:14 25.2 °C 20.0 °C 1015.3 hPa NW 3.2 km/h   73% 0.0 mm CLR
00:19 25.2 °C 20.0 °C 1015.2 hPa Calm   5.6 km/h 73% 0.0 mm CLR
00:24 25.2 °C 20.0 °C 1015.2 hPa Calm   5.0 km/h 73% 0.0 mm CLR
00:29 25.2 °C 20.0 °C 1015.2 hPa NW 2.9 km/h 5.6 km/h 73% 0.0 mm CLR
00:34 25.2 °C 20.0 °C 1015.2 hPa NW 2.9 km/h 3.7 km/h 73% 0.0 mm CLR
00:39 25.2 °C 20.0 °C 1015.2 hPa West 2.9 km/h   73% 0.0 mm CLR
00:44 25.2 °C 20.0 °C 1015.2 hPa West 2.9 km/h 5.6 km/h 73% 0.0 mm CLR
00:49 25.2 °C 20.0 °C 1015.2 hPa West 2.9 km/h   73% 0.0 mm CLR
00:54 25.2 °C 20.0 °C 1015.2 hPa West 2.9 km/h 5.0 km/h 73% 0.0 mm CLR
00:59 25.2 °C 20.0 °C 1015.2 hPa WNW 2.9 km/h 7.4 km/h 73% 0.0 mm CLR
01:04 25.2 °C 20.0 °C 1015.1 hPa WNW 2.9 km/h 7.4 km/h 73% 0.0 mm CLR
01:09 25.2 °C 20.0 °C 1015.1 hPa WNW 3.2 km/h   73% 0.0 mm CLR
01:14 25.2 °C 20.0 °C 1015.1 hPa West 3.2 km/h 3.9 km/h 73% 0.0 mm CLR
01:19 25.3 °C 20.1 °C 1015.0 hPa West 2.3 km/h 5.6 km/h 73% 0.0 mm CLR
01:24 25.3 °C 20.1 °C 1015.0 hPa West 2.3 km/h 3.7 km/h 73% 0.0 mm CLR
01:29 25.3 °C 20.1 °C 1015.0 hPa West 2.3 km/h   73% 0.0 mm CLR
01:34 25.3 °C 20.1 °C 1015.0 hPa West 2.3 km/h   73% 0.0 mm CLR
01:39 25.2 °C 20.0 °C 1015.0 hPa South 2.3 km/h 9.3 km/h 73% 0.0 mm CLR
01:44 25.2 °C 20.0 °C 1015.0 hPa SSW 2.3 km/h 7.4 km/h 73% 0.0 mm CLR
01:49 25.1 °C 19.9 °C 1014.8 hPa SSE 6.4 km/h 9.3 km/h 73% 0.0 mm CLR
01:54 25.0 °C 19.8 °C 1014.8 hPa South 6.4 km/h 13.0 km/h 73% 0.0 mm CLR
01:59 25.0 °C 19.8 °C 1014.8 hPa SSE 8.4 km/h 8.4 km/h 73% 0.0 mm CLR
02:04 25.0 °C 19.8 °C 1014.8 hPa SSW 8.4 km/h 13.0 km/h 73% 0.0 mm CLR
02:09 24.9 °C 19.7 °C 1014.8 hPa WSW 7.6 km/h 14.8 km/h 73% 0.0 mm CLR
02:14 25.0 °C 19.8 °C 1014.8 hPa ESE 7.6 km/h 9.3 km/h 73% 0.0 mm CLR
02:19 24.8 °C 19.6 °C 1014.6 hPa SE 7.6 km/h 14.8 km/h 73% 0.0 mm CLR
02:24 24.9 °C 19.7 °C 1014.6 hPa SW 7.6 km/h 16.7 km/h 73% 0.0 mm CLR
02:29 25.2 °C 19.8 °C 1014.6 hPa East 8.7 km/h 9.5 km/h 72% 0.0 mm CLR
02:34 24.9 °C 19.5 °C 1014.6 hPa SE 8.7 km/h 5.6 km/h 72% 0.0 mm CLR
02:39 24.9 °C 19.7 °C 1014.6 hPa South 7.6 km/h 11.1 km/h 73% 0.0 mm CLR
02:44 24.9 °C 19.7 °C 1014.6 hPa ESE 7.6 km/h 9.3 km/h 73% 0.0 mm CLR
02:49 24.9 °C 19.7 °C 1014.5 hPa SSE 6.9 km/h 11.1 km/h 73% 0.0 mm CLR
02:54 24.9 °C 19.7 °C 1014.5 hPa SSE 6.9 km/h 8.4 km/h 73% 0.0 mm CLR
02:59 24.9 °C 19.7 °C 1014.5 hPa SSW 6.9 km/h 9.3 km/h 73% 0.0 mm CLR
03:04 24.9 °C 19.7 °C 1014.4 hPa SSW 6.9 km/h 8.4 km/h 73% 0.0 mm CLR
03:09 24.9 °C 19.7 °C 1014.4 hPa SSW 5.8 km/h 10.0 km/h 73% 0.0 mm CLR
03:14 25.0 °C 19.8 °C 1014.4 hPa SSW 5.8 km/h 7.4 km/h 73% 0.0 mm CLR
03:19 25.1 °C 19.7 °C 1014.3 hPa SSE 6.4 km/h 7.4 km/h 72% 0.0 mm CLR
03:24 25.1 °C 19.7 °C 1014.3 hPa South 6.4 km/h 6.4 km/h 72% 0.0 mm CLR
03:29 25.1 °C 19.7 °C 1014.3 hPa South 5.0 km/h 9.3 km/h 72% 0.0 mm CLR
03:34 25.1 °C 19.7 °C 1014.2 hPa SSW 5.0 km/h 11.1 km/h 72% 0.0 mm CLR
03:39 25.1 °C 19.7 °C 1014.2 hPa South 6.9 km/h 7.6 km/h 72% 0.0 mm CLR
03:44 25.1 °C 19.7 °C 1014.2 hPa South 6.9 km/h 14.8 km/h 72% 0.0 mm CLR
03:49 25.1 °C 19.7 °C 1014.3 hPa SSW 8.4 km/h 13.0 km/h 72% 0.0 mm CLR
03:54 25.1 °C 19.7 °C 1014.3 hPa SSW 8.4 km/h 9.3 km/h 72% 0.0 mm CLR
03:59 25.1 °C 19.7 °C 1014.3 hPa SW 6.4 km/h 7.6 km/h 72% 0.0 mm CLR
04:04 25.1 °C 19.7 °C 1014.1 hPa SSW 6.4 km/h 7.4 km/h 72% 0.0 mm CLR
04:09 25.1 °C 19.7 °C 1014.1 hPa SSW 6.4 km/h 7.4 km/h 72% 0.0 mm CLR
04:14 25.2 °C 19.6 °C 1014.1 hPa SW 6.4 km/h 9.3 km/h 71% 0.0 mm CLR
04:19 25.2 °C 19.6 °C 1014.1 hPa SSW 6.4 km/h 7.4 km/h 71% 0.0 mm CLR
04:24 25.2 °C 19.6 °C 1014.1 hPa South 6.4 km/h 11.1 km/h 71% 0.0 mm CLR
04:29 25.1 °C 19.4 °C 1014.1 hPa SSW 6.9 km/h 10.3 km/h 71% 0.0 mm CLR
04:34 25.1 °C 19.4 °C 1014.3 hPa WSW 6.9 km/h 10.3 km/h 71% 0.0 mm CLR
04:39 25.1 °C 19.4 °C 1014.3 hPa South 6.9 km/h 5.6 km/h 71% 0.0 mm CLR
04:44 25.1 °C 19.4 °C 1014.3 hPa South 6.9 km/h 5.6 km/h 71% 0.0 mm CLR
04:49 25.1 °C 19.4 °C 1014.3 hPa SW 4.7 km/h 7.4 km/h 71% 0.0 mm CLR
04:54 25.1 °C 19.4 °C 1014.3 hPa SW 4.7 km/h 9.3 km/h 71% 0.0 mm CLR
04:59 25.0 °C 19.4 °C 1014.3 hPa SSW 6.4 km/h 9.3 km/h 71% 0.0 mm CLR
05:04 24.9 °C 19.3 °C 1014.6 hPa South 6.4 km/h 9.3 km/h 71% 0.0 mm CLR
05:09 24.9 °C 19.3 °C 1014.6 hPa SW 5.8 km/h 7.4 km/h 71% 0.0 mm CLR
05:14 24.9 °C 19.1 °C 1014.6 hPa WSW 5.8 km/h 7.4 km/h 70% 0.0 mm CLR
05:19 24.9 °C 19.1 °C 1014.6 hPa SSW 3.9 km/h 8.7 km/h 70% 0.0 mm CLR
05:24 24.9 °C 19.1 °C 1014.6 hPa WNW 3.9 km/h 7.4 km/h 70% 0.0 mm CLR
05:29 24.9 °C 19.1 °C 1014.6 hPa SW 5.0 km/h 9.3 km/h 70% 0.0 mm CLR
05:34 24.9 °C 18.8 °C 1014.6 hPa SW 5.0 km/h 9.3 km/h 69% 0.0 mm CLR
05:39 24.9 °C 18.8 °C 1014.6 hPa WSW 6.4 km/h 9.5 km/h 69% 0.0 mm CLR
05:44 24.9 °C 18.8 °C 1014.6 hPa SW 6.4 km/h 9.3 km/h 69% 0.0 mm CLR
05:49 24.9 °C 18.8 °C 1014.7 hPa SW 8.4 km/h 11.1 km/h 69% 0.0 mm CLR
05:54 24.8 °C 18.7 °C 1014.7 hPa SSE 8.4 km/h 5.6 km/h 69% 0.0 mm CLR
05:59 24.9 °C 18.8 °C 1014.7 hPa SW 5.0 km/h 7.4 km/h 69% 0.0 mm CLR
06:04 24.9 °C 18.8 °C 1014.8 hPa SSW 5.0 km/h 11.1 km/h 69% 0.0 mm CLR
06:09 24.9 °C 18.8 °C 1014.8 hPa WSW 5.8 km/h 3.7 km/h 69% 0.0 mm CLR
06:14 24.9 °C 19.1 °C 1014.8 hPa South 5.8 km/h 5.6 km/h 70% 0.0 mm CLR
06:19 24.8 °C 18.9 °C 1014.8 hPa SW 2.9 km/h 7.4 km/h 70% 0.0 mm CLR
06:24 24.8 °C 18.9 °C 1014.8 hPa West 2.9 km/h   70% 0.0 mm CLR
06:29 24.7 °C 19.1 °C 1014.8 hPa West 2.3 km/h 7.4 km/h 71% 0.0 mm CLR
06:34 24.4 °C 18.8 °C 1014.8 hPa West 2.3 km/h   71% 0.0 mm CLR
06:39 24.4 °C 18.8 °C 1014.8 hPa SW 3.2 km/h 7.4 km/h 71% 0.0 mm CLR
06:44 24.4 °C 18.8 °C 1014.8 hPa NNW 3.2 km/h 3.7 km/h 71% 0.0 mm CLR
06:49 24.4 °C 18.8 °C 1015.0 hPa NNW 2.9 km/h 4.7 km/h 71% 0.0 mm CLR
06:54 24.4 °C 18.6 °C 1015.0 hPa WSW 2.9 km/h 7.4 km/h 70% 0.0 mm CLR
06:59 24.4 °C 18.6 °C 1015.0 hPa West 4.7 km/h 5.6 km/h 70% 0.0 mm CLR
07:04 24.4 °C 18.6 °C 1014.9 hPa WNW 4.7 km/h 7.4 km/h 70% 0.0 mm CLR
07:09 24.4 °C 18.6 °C 1014.9 hPa WNW 3.9 km/h 5.6 km/h 70% 0.0 mm CLR
07:14 24.5 °C 18.7 °C 1014.9 hPa WNW 3.9 km/h 1.9 km/h 70% 0.0 mm CLR
07:19 24.4 °C 18.3 °C 1015.0 hPa NW 2.3 km/h 3.7 km/h 69% 0.0 mm CLR
07:24 24.4 °C 18.3 °C 1015.0 hPa WSW 2.3 km/h 3.7 km/h 69% 0.0 mm CLR
07:29 24.5 °C 18.4 °C 1015.0 hPa NNE 2.9 km/h   69% 0.0 mm CLR
07:34 24.6 °C 18.3 °C 1015.3 hPa NNE 2.9 km/h   68% 0.0 mm CLR
07:39 24.6 °C 18.3 °C 1015.3 hPa Calm   5.8 km/h 68% 0.0 mm CLR
07:44 24.7 °C 18.6 °C 1015.3 hPa Calm     69% 0.0 mm CLR
07:49 24.9 °C 18.3 °C 1015.3 hPa NNW 2.3 km/h 3.7 km/h 67% 0.0 mm CLR
07:54 25.0 °C 18.4 °C 1015.3 hPa NNW 2.3 km/h 3.7 km/h 67% 0.0 mm CLR
07:59 25.2 °C 18.4 °C 1015.3 hPa NNW 2.3 km/h 3.7 km/h 66% 0.0 mm CLR
08:04 25.3 °C 18.5 °C 1015.3 hPa NNW 2.3 km/h   66% 0.0 mm CLR
08:09 25.6 °C 18.6 °C 1015.3 hPa NNW 2.3 km/h   65% 0.0 mm CLR
08:14 25.8 °C 18.2 °C 1015.3 hPa NNW 2.3 km/h   63% 0.0 mm CLR
08:19 26.1 °C 18.5 °C 1015.3 hPa Calm     63% 0.0 mm CLR
08:24 26.3 °C 18.2 °C 1015.3 hPa Calm     61% 0.0 mm CLR
08:29 26.4 °C 18.0 °C 1015.3 hPa Calm   3.7 km/h 60% 0.0 mm CLR
08:34 26.6 °C 18.2 °C 1015.5 hPa Calm   3.7 km/h 60% 0.0 mm CLR
08:39 26.6 °C 18.2 °C 1015.5 hPa NNW 2.9 km/h 3.7 km/h 60% 0.0 mm CLR
08:44 26.7 °C 18.3 °C 1015.5 hPa NE 2.9 km/h 3.9 km/h 60% 0.0 mm CLR
08:49 26.7 °C 18.3 °C 1015.5 hPa NNE 3.2 km/h 7.4 km/h 60% 0.0 mm CLR
08:54 26.7 °C 18.3 °C 1015.5 hPa NW 3.2 km/h 9.3 km/h 60% 0.0 mm CLR
08:59 26.7 °C 18.3 °C 1015.5 hPa NNW 5.0 km/h 3.7 km/h 60% 0.0 mm CLR
09:04 26.8 °C 18.4 °C 1015.6 hPa WNW 5.0 km/h 8.4 km/h 60% 0.0 mm CLR
09:09 26.9 °C 18.2 °C 1015.6 hPa NNE 3.2 km/h 5.6 km/h 59% 0.0 mm CLR
09:14 27.1 °C 18.1 °C 1015.6 hPa NNW 3.2 km/h 8.4 km/h 58% 0.0 mm CLR
09:19 27.1 °C 18.1 °C 1015.6 hPa NE 4.7 km/h 7.4 km/h 58% 0.0 mm CLR
09:24 27.2 °C 18.2 °C 1015.6 hPa North 4.7 km/h 9.5 km/h 58% 0.0 mm CLR
09:29 27.3 °C 18.1 °C 1015.6 hPa NNE 6.9 km/h 14.8 km/h 57% 0.0 mm CLR
09:34 27.2 °C 17.9 °C 1015.6 hPa NNE 6.9 km/h 14.8 km/h 57% 0.0 mm CLR
09:39 27.3 °C 18.1 °C 1015.6 hPa NNE 9.5 km/h 9.3 km/h 57% 0.0 mm CLR
09:44 27.6 °C 18.1 °C 1015.6 hPa NNE 9.5 km/h 13.0 km/h 56% 0.0 mm CLR
09:49 27.7 °C 18.1 °C 1015.8 hPa ENE 8.7 km/h 14.0 km/h 56% 0.0 mm CLR
09:54 27.8 °C 18.2 °C 1015.8 hPa NE 8.7 km/h 14.8 km/h 56% 0.0 mm CLR
09:59 28.0 °C 17.5 °C 1015.8 hPa ENE 12.2 km/h 20.4 km/h 53% 0.0 mm CLR
10:04 28.2 °C 17.4 °C 1015.8 hPa NNE 12.2 km/h 24.1 km/h 52% 0.0 mm CLR
10:09 28.4 °C 17.9 °C 1015.8 hPa NNE 14.0 km/h 22.2 km/h 53% 0.0 mm CLR
10:14 28.7 °C 17.6 °C 1015.8 hPa North 14.0 km/h 16.7 km/h 51% 0.0 mm CLR
10:19 28.7 °C 17.2 °C 1015.7 hPa NE 12.2 km/h 18.5 km/h 50% 0.0 mm CLR
10:24 28.7 °C 17.6 °C 1015.7 hPa North 12.2 km/h 20.4 km/h 51% 0.0 mm CLR
10:29 28.9 °C 17.4 °C 1015.7 hPa NE 13.7 km/h 18.5 km/h 50% 0.0 mm CLR
10:34 28.9 °C 17.4 °C 1015.7 hPa North 13.7 km/h 18.5 km/h 50% 0.0 mm CLR
10:39 29.1 °C 17.3 °C 1015.7 hPa NE 14.0 km/h 20.4 km/h 49% 0.0 mm CLR
10:44 29.3 °C 17.5 °C 1015.7 hPa NE 14.0 km/h 24.1 km/h 49% 0.0 mm CLR
10:49 29.6 °C 17.1 °C 1015.8 hPa NE 13.7 km/h 27.8 km/h 47% 0.0 mm CLR
10:54 29.7 °C 17.2 °C 1015.8 hPa NNE 13.7 km/h 27.0 km/h 47% 0.0 mm CLR
10:59 29.7 °C 17.2 °C 1015.8 hPa NNE 19.8 km/h 25.9 km/h 47% 0.0 mm CLR
11:04 29.8 °C 17.3 °C 1015.9 hPa North 19.8 km/h 37.0 km/h 47% 0.0 mm CLR
11:09 29.9 °C 17.0 °C 1015.9 hPa East 20.9 km/h 31.5 km/h 46% 0.0 mm CLR
11:14 29.9 °C 17.0 °C 1015.9 hPa NNE 20.9 km/h 40.7 km/h 46% 0.0 mm CLR
11:19 30.0 °C 17.1 °C 1015.8 hPa NNE 21.7 km/h 25.9 km/h 46% 0.0 mm CLR
11:24 30.2 °C 16.9 °C 1015.8 hPa NNE 21.7 km/h 27.8 km/h 45% 0.0 mm CLR
11:29 30.3 °C 17.1 °C 1015.8 hPa NE 19.0 km/h 31.5 km/h 45% 0.0 mm CLR
11:34 30.3 °C 16.7 °C 1015.7 hPa NE 19.0 km/h 29.6 km/h 44% 0.0 mm CLR
11:39 30.5 °C 16.9 °C 1015.7 hPa ENE 20.1 km/h 33.3 km/h 44% 0.0 mm CLR
11:44 30.7 °C 17.1 °C 1015.7 hPa NNE 20.1 km/h 30.9 km/h 44% 0.0 mm CLR
11:49 30.6 °C 16.9 °C 1015.9 hPa ENE 19.0 km/h 25.9 km/h 44% 0.0 mm CLR
11:54 30.7 °C 17.4 °C 1015.9 hPa ENE 19.0 km/h 33.3 km/h 45% 0.0 mm CLR
11:59 30.7 °C 17.1 °C 1015.9 hPa East 17.2 km/h 31.5 km/h 44% 0.0 mm CLR
12:04 30.6 °C 16.9 °C 1015.9 hPa NE 17.2 km/h 25.9 km/h 44% 0.0 mm CLR
12:09 30.6 °C 16.9 °C 1015.9 hPa ENE 20.1 km/h 27.8 km/h 44% 0.0 mm CLR
12:14 30.7 °C 17.1 °C 1015.9 hPa NE 20.1 km/h 24.1 km/h 44% 0.0 mm CLR
12:19 30.6 °C 17.7 °C 1015.9 hPa ESE 19.8 km/h 20.4 km/h 46% 0.0 mm CLR
12:24 30.8 °C 17.8 °C 1015.9 hPa NE 19.8 km/h 28.6 km/h 46% 0.0 mm CLR
12:29 30.7 °C 17.8 °C 1015.9 hPa NNE 16.4 km/h 27.8 km/h 46% 0.0 mm CLR
12:34 30.5 °C 17.6 °C 1016.0 hPa NNE 16.4 km/h 33.3 km/h 46% 0.0 mm CLR
12:39 30.5 °C 17.6 °C 1016.0 hPa ENE 17.2 km/h 31.7 km/h 46% 0.0 mm CLR
12:44 30.4 °C 17.8 °C 1016.0 hPa East 17.2 km/h 29.6 km/h 47% 0.0 mm CLR
12:49 30.4 °C 17.8 °C 1016.0 hPa East 21.7 km/h 27.8 km/h 47% 0.0 mm CLR
12:54 30.4 °C 18.2 °C 1016.0 hPa ENE 21.7 km/h 29.6 km/h 48% 0.0 mm CLR
12:59 30.3 °C 17.7 °C 1016.0 hPa ESE 19.0 km/h 25.9 km/h 47% 0.0 mm CLR
13:04 30.6 °C 17.7 °C 1016.0 hPa East 19.0 km/h 25.9 km/h 46% 0.0 mm CLR
13:09 30.6 °C 18.0 °C 1016.0 hPa NNW 15.6 km/h 20.4 km/h 47% 0.0 mm CLR
13:14 30.6 °C 18.0 °C 1016.0 hPa ENE 15.6 km/h 33.3 km/h 47% 0.0 mm CLR
13:19 30.6 °C 18.3 °C 1015.9 hPa NE 16.4 km/h 25.9 km/h 48% 0.0 mm CLR
13:24 30.7 °C 18.1 °C 1015.9 hPa NE 16.4 km/h 27.8 km/h 47% 0.0 mm CLR
13:29 30.7 °C 18.1 °C 1015.9 hPa North 16.1 km/h 33.3 km/h 47% 0.0 mm CLR
13:34 30.7 °C 18.1 °C 1015.8 hPa NE 16.1 km/h 25.9 km/h 47% 0.0 mm CLR
13:39 30.8 °C 17.8 °C 1015.8 hPa NE 19.8 km/h 28.6 km/h 46% 0.0 mm CLR
13:45 30.8 °C 17.5 °C 1015.8 hPa ENE 19.8 km/h 22.2 km/h 45% 0.0 mm CLR
13:50 30.8 °C 17.8 °C 1015.6 hPa ENE 17.2 km/h 23.3 km/h 46% 0.0 mm CLR
13:55 30.7 °C 17.8 °C 1015.6 hPa NE 17.2 km/h 31.5 km/h 46% 0.0 mm CLR
14:00 30.8 °C 17.8 °C 1015.6 hPa NE 16.1 km/h 29.8 km/h 46% 0.0 mm CLR
14:05 30.7 °C 17.4 °C 1015.7 hPa NE 16.1 km/h 29.6 km/h 45% 0.0 mm CLR
14:10 30.7 °C 17.8 °C 1015.7 hPa NE 19.8 km/h 27.8 km/h 46% 0.0 mm CLR
14:15 30.6 °C 17.7 °C 1015.7 hPa East 19.8 km/h 18.5 km/h 46% 0.0 mm CLR
14:20 30.6 °C 17.7 °C 1015.6 hPa ENE 16.1 km/h 24.1 km/h 46% 0.0 mm CLR
14:25 30.6 °C 17.7 °C 1015.6 hPa ENE 16.1 km/h 25.9 km/h 46% 0.0 mm CLR
14:30 30.7 °C 17.8 °C 1015.6 hPa ENE 16.4 km/h 22.2 km/h 46% 0.0 mm CLR
14:35 30.8 °C 17.8 °C 1015.5 hPa NE 16.4 km/h 31.5 km/h 46% 0.0 mm CLR
14:40 30.7 °C 17.8 °C 1015.5 hPa NE 17.2 km/h 24.1 km/h 46% 0.0 mm CLR
14:45 30.8 °C 17.8 °C 1015.5 hPa ENE 17.2 km/h 33.5 km/h 46% 0.0 mm CLR
14:50 30.8 °C 17.8 °C 1015.4 hPa NE 17.2 km/h 31.5 km/h 46% 0.0 mm CLR
14:55 31.0 °C 18.0 °C 1015.4 hPa East 17.2 km/h 28.2 km/h 46% 0.0 mm CLR
15:00 31.2 °C 17.8 °C 1015.4 hPa ESE 16.4 km/h 27.8 km/h 45% 0.0 mm CLR
15:05 31.3 °C 17.9 °C 1015.5 hPa ENE 16.4 km/h 31.5 km/h 45% 0.0 mm CLR
15:10 31.3 °C 17.6 °C 1015.5 hPa ENE 16.4 km/h 25.9 km/h 44% 0.0 mm CLR
15:15 31.5 °C 17.8 °C 1015.5 hPa SE 16.4 km/h 22.2 km/h 44% 0.0 mm CLR
15:20 31.8 °C 16.9 °C 1015.4 hPa NE 14.8 km/h 29.6 km/h 41% 0.0 mm CLR
15:25 31.7 °C 16.8 °C 1015.4 hPa ESE 14.8 km/h 30.9 km/h 41% 0.0 mm CLR
15:30 31.4 °C 17.3 °C 1015.4 hPa NE 19.8 km/h 29.6 km/h 43% 0.0 mm CLR
15:35 31.1 °C 17.1 °C 1015.4 hPa East 19.8 km/h 25.9 km/h 43% 0.0 mm CLR
15:40 31.1 °C 17.1 °C 1015.4 hPa NE 14.8 km/h 24.1 km/h 43% 0.0 mm CLR
15:45 31.3 °C 16.8 °C 1015.4 hPa NE 14.8 km/h 29.6 km/h 42% 0.0 mm CLR
15:50 31.5 °C 17.1 °C 1015.1 hPa NE 14.8 km/h 32.8 km/h 42% 0.0 mm CLR
15:55 31.4 °C 17.3 °C 1015.1 hPa NE 14.8 km/h 29.6 km/h 43% 0.0 mm CLR
16:00 31.6 °C 16.7 °C 1015.1 hPa East 19.8 km/h 33.3 km/h 41% 0.0 mm CLR
16:05 31.9 °C 16.6 °C 1015.1 hPa ENE 19.8 km/h 23.3 km/h 40% 0.0 mm CLR
16:10 31.9 °C 16.6 °C 1015.1 hPa WNW 17.2 km/h 18.5 km/h 40% 0.0 mm CLR
16:15 32.0 °C 16.3 °C 1015.1 hPa NNE 17.2 km/h 27.8 km/h 39% 0.0 mm CLR
16:20 31.8 °C 16.6 °C 1015.0 hPa NE 18.0 km/h 33.3 km/h 40% 0.0 mm CLR
16:25 31.4 °C 16.6 °C 1015.0 hPa NE 18.0 km/h 33.5 km/h 41% 0.0 mm CLR
16:30 31.5 °C 17.1 °C 1015.0 hPa NE 22.0 km/h 29.6 km/h 42% 0.0 mm CLR
16:35 31.3 °C 16.5 °C 1014.9 hPa NE 22.0 km/h 33.3 km/h 41% 0.0 mm CLR
16:40 31.4 °C 16.6 °C 1014.9 hPa NE 20.9 km/h 32.3 km/h 41% 0.0 mm CLR
16:45 31.6 °C 16.7 °C 1014.9 hPa East 20.9 km/h 29.6 km/h 41% 0.0 mm CLR
16:50 31.8 °C 16.6 °C 1014.7 hPa NE 18.3 km/h 48.1 km/h 40% 0.0 mm CLR
16:55 31.7 °C 16.4 °C 1014.7 hPa NE 18.3 km/h 29.8 km/h 40% 0.0 mm CLR
17:00 31.7 °C 16.1 °C 1014.7 hPa ENE 22.0 km/h 35.2 km/h 39% 0.0 mm CLR
17:05 31.5 °C 16.3 °C 1014.7 hPa NE 22.0 km/h 40.7 km/h 40% 0.0 mm CLR
17:10 31.5 °C 15.9 °C 1014.7 hPa NE 25.6 km/h 33.3 km/h 39% 0.0 mm CLR
17:15 31.6 °C 15.9 °C 1014.7 hPa NE 25.6 km/h 27.4 km/h 39% 0.0 mm CLR
17:20 31.8 °C 15.7 °C 1014.6 hPa NE 22.5 km/h 37.0 km/h 38% 0.0 mm CLR
17:25 31.9 °C 15.8 °C 1014.6 hPa NE 22.5 km/h 44.4 km/h 38% 0.0 mm CLR
17:30 31.9 °C 15.8 °C 1014.6 hPa ENE 22.0 km/h 28.6 km/h 38% 0.0 mm CLR
17:35 31.9 °C 15.4 °C 1014.6 hPa ENE 22.0 km/h 33.5 km/h 37% 0.0 mm CLR
17:40 31.9 °C 15.4 °C 1014.6 hPa NE 21.7 km/h 42.6 km/h 37% 0.0 mm CLR
17:45 31.8 °C 15.7 °C 1014.6 hPa NE 21.7 km/h 33.3 km/h 38% 0.0 mm CLR
17:50 31.9 °C 15.8 °C 1014.5 hPa NE 26.2 km/h 37.0 km/h 38% 0.0 mm CLR
17:55 31.6 °C 15.6 °C 1014.5 hPa ENE 26.2 km/h 41.2 km/h 38% 0.0 mm CLR
18:00 31.6 °C 15.9 °C 1014.5 hPa NNE 27.4 km/h 35.2 km/h 39% 0.0 mm CLR
18:05 31.6 °C 15.9 °C 1014.4 hPa ENE 27.4 km/h 38.9 km/h 39% 0.0 mm CLR
18:10 31.4 °C 16.2 °C 1014.4 hPa NE 25.1 km/h 37.0 km/h 40% 0.0 mm CLR
18:15 31.5 °C 15.9 °C 1014.4 hPa North 25.1 km/h 35.2 km/h 39% 0.0 mm CLR
18:20 31.3 °C 16.1 °C 1014.6 hPa East 23.7 km/h 29.6 km/h 40% 0.0 mm CLR
18:25 31.3 °C 16.1 °C 1014.6 hPa NE 23.7 km/h 31.5 km/h 40% 0.0 mm CLR
18:30 31.3 °C 16.1 °C 1014.6 hPa NE 22.5 km/h 29.6 km/h 40% 0.0 mm CLR
18:35 31.2 °C 16.0 °C 1014.5 hPa NNE 22.5 km/h 42.6 km/h 40% 0.0 mm CLR
18:40 31.2 °C 16.0 °C 1014.5 hPa East 22.0 km/h 32.8 km/h 40% 0.0 mm CLR
18:45 31.2 °C 16.0 °C 1014.5 hPa NE 22.0 km/h 33.3 km/h 40% 0.0 mm CLR
18:50 31.1 °C 15.9 °C 1014.5 hPa NE 22.0 km/h 29.8 km/h 40% 0.0 mm CLR
18:55 31.0 °C 16.2 °C 1014.5 hPa ENE 22.0 km/h 37.8 km/h 41% 0.0 mm CLR
19:00 30.9 °C 16.1 °C 1014.5 hPa NE 23.3 km/h 33.3 km/h 41% 0.0 mm CLR
19:05 31.0 °C 16.2 °C 1014.4 hPa NE 23.3 km/h 32.3 km/h 41% 0.0 mm CLR
19:10 30.9 °C 16.1 °C 1014.4 hPa ENE 18.0 km/h 35.2 km/h 41% 0.0 mm CLR
19:15 30.7 °C 15.9 °C 1014.4 hPa NNE 18.0 km/h 35.2 km/h 41% 0.0 mm CLR
19:20 30.6 °C 15.8 °C 1014.5 hPa ENE 23.7 km/h 27.8 km/h 41% 0.0 mm CLR
19:25 30.7 °C 15.9 °C 1014.5 hPa NE 23.7 km/h 29.6 km/h 41% 0.0 mm CLR
19:30 30.6 °C 15.8 °C 1014.5 hPa NE 19.0 km/h 31.5 km/h 41% 0.0 mm CLR
19:35 30.6 °C 15.8 °C 1014.6 hPa NE 19.0 km/h 29.6 km/h 41% 0.0 mm CLR
19:40 30.6 °C 15.8 °C 1014.6 hPa NNE 18.3 km/h 31.5 km/h 41% 0.0 mm CLR
19:45 30.4 °C 15.7 °C 1014.6 hPa ENE 18.3 km/h 31.5 km/h 41% 0.0 mm CLR
19:50 30.3 °C 15.6 °C 1014.6 hPa NE 20.9 km/h 29.6 km/h 41% 0.0 mm CLR
19:55 30.2 °C 15.9 °C 1014.6 hPa NE 20.9 km/h 33.3 km/h 42% 0.0 mm CLR
20:00 30.1 °C 15.8 °C 1014.6 hPa NE 20.1 km/h 24.1 km/h 42% 0.0 mm CLR
20:05 30.0 °C 15.7 °C 1014.6 hPa NE 20.1 km/h 29.6 km/h 42% 0.0 mm CLR
20:10 29.9 °C 15.6 °C 1014.6 hPa ENE 18.3 km/h 24.1 km/h 42% 0.0 mm CLR
20:15 29.9 °C 15.6 °C 1014.6 hPa NNE 18.3 km/h 25.9 km/h 42% 0.0 mm CLR
20:20 29.9 °C 15.6 °C 1014.8 hPa ENE 17.2 km/h 22.2 km/h 42% 0.0 mm CLR
20:25 29.8 °C 15.1 °C 1014.8 hPa NE 17.2 km/h 29.6 km/h 41% 0.0 mm CLR
20:30 29.7 °C 15.4 °C 1014.8 hPa NE 19.0 km/h 29.6 km/h 42% 0.0 mm CLR
20:35 29.6 °C 15.3 °C 1015.0 hPa NE 19.0 km/h 24.1 km/h 42% 0.0 mm CLR
20:40 29.4 °C 15.2 °C 1015.0 hPa ENE 16.4 km/h 32.3 km/h 42% 0.0 mm CLR
20:45 29.3 °C 15.1 °C 1015.0 hPa NE 16.4 km/h 24.1 km/h 42% 0.0 mm CLR
20:50 29.2 °C 15.3 °C 1015.1 hPa NE 18.3 km/h 22.2 km/h 43% 0.0 mm CLR
20:55 29.2 °C 15.3 °C 1015.1 hPa NE 18.3 km/h 22.2 km/h 43% 0.0 mm CLR
21:00 29.2 °C 15.3 °C 1015.1 hPa ENE 13.7 km/h 22.2 km/h 43% 0.0 mm CLR
21:05 29.1 °C 15.6 °C 1015.2 hPa ENE 13.7 km/h 22.2 km/h 44% 0.0 mm CLR
21:10 29.0 °C 15.5 °C 1015.2 hPa ENE 15.6 km/h 19.0 km/h 44% 0.0 mm CLR
21:15 28.9 °C 15.8 °C 1015.2 hPa ENE 15.6 km/h 19.0 km/h 45% 0.0 mm CLR
21:20 28.8 °C 15.7 °C 1015.2 hPa ENE 14.8 km/h 22.2 km/h 45% 0.0 mm CLR
21:25 28.6 °C 15.8 °C 1015.2 hPa NNE 14.8 km/h 22.2 km/h 46% 0.0 mm CLR
21:30 28.4 °C 15.7 °C 1015.2 hPa ENE 16.1 km/h 24.5 km/h 46% 0.0 mm CLR
21:35 28.3 °C 15.9 °C 1015.2 hPa ENE 16.1 km/h 20.4 km/h 47% 0.0 mm CLR
21:40 28.3 °C 15.9 °C 1015.2 hPa NE 14.0 km/h 16.7 km/h 47% 0.0 mm CLR
21:45 28.1 °C 16.1 °C 1015.2 hPa NE 14.0 km/h 20.4 km/h 48% 0.0 mm CLR
21:50 28.0 °C 15.9 °C 1015.0 hPa NE 12.2 km/h 24.1 km/h 48% 0.0 mm CLR
21:55 27.9 °C 16.2 °C 1015.0 hPa NNE 12.2 km/h 24.1 km/h 49% 0.0 mm CLR
22:00 27.8 °C 16.1 °C 1015.0 hPa ENE 15.6 km/h 22.2 km/h 49% 0.0 mm CLR
22:05 27.8 °C 16.1 °C 1015.1 hPa East 15.6 km/h 25.9 km/h 49% 0.0 mm CLR
22:10 27.7 °C 16.0 °C 1015.1 hPa NE 14.0 km/h 16.7 km/h 49% 0.0 mm CLR
22:15 27.7 °C 16.0 °C 1015.1 hPa NNE 14.0 km/h 10.3 km/h 49% 0.0 mm CLR
22:20 27.6 °C 15.9 °C 1015.1 hPa NE 10.0 km/h 15.6 km/h 49% 0.0 mm CLR
22:25 27.4 °C 16.1 °C 1015.1 hPa ENE 10.0 km/h 14.8 km/h 50% 0.0 mm CLR
22:30 27.3 °C 15.9 °C 1015.1 hPa ENE 10.3 km/h 13.0 km/h 50% 0.0 mm CLR
22:35 27.3 °C 15.9 °C 1015.1 hPa NNE 10.3 km/h 11.1 km/h 50% 0.0 mm CLR
22:40 27.2 °C 15.9 °C 1015.1 hPa NE 8.7 km/h 13.0 km/h 50% 0.0 mm CLR
22:45 27.1 °C 15.8 °C 1015.1 hPa NNE 8.7 km/h 11.1 km/h 50% 0.0 mm CLR
22:50 27.1 °C 15.8 °C 1015.3 hPa NE 8.4 km/h 9.3 km/h 50% 0.0 mm CLR
22:55 27.0 °C 15.7 °C 1015.3 hPa NE 8.4 km/h 3.7 km/h 50% 0.0 mm CLR
23:00 27.1 °C 15.8 °C 1015.3 hPa NE 3.9 km/h 3.9 km/h 50% 0.0 mm CLR
23:05 27.1 °C 15.8 °C 1015.6 hPa NE 3.9 km/h 3.7 km/h 50% 0.0 mm CLR
23:10 27.2 °C 15.9 °C 1015.6 hPa NE 2.9 km/h 7.4 km/h 50% 0.0 mm CLR
23:15 27.2 °C 15.6 °C 1015.6 hPa NE 2.9 km/h 3.7 km/h 49% 0.0 mm CLR
23:20 27.2 °C 15.6 °C 1015.8 hPa NE 3.2 km/h   49% 0.0 mm CLR
23:25 27.1 °C 15.8 °C 1015.8 hPa WNW 3.2 km/h 7.4 km/h 50% 0.0 mm CLR
23:30 27.0 °C 15.7 °C 1015.8 hPa WNW 2.9 km/h 5.6 km/h 50% 0.0 mm CLR
23:35 26.9 °C 15.6 °C 1015.9 hPa WNW 2.9 km/h 3.7 km/h 50% 0.0 mm CLR
23:40 26.9 °C 15.6 °C 1015.9 hPa WNW 3.2 km/h 4.7 km/h 50% 0.0 mm CLR
23:45 26.9 °C 15.9 °C 1015.9 hPa WNW 3.2 km/h 5.6 km/h 51% 0.0 mm CLR
23:50 26.8 °C 15.8 °C 1016.1 hPa WNW 3.2 km/h 5.6 km/h 51% 0.0 mm CLR
23:55 26.8 °C 15.8 °C 1016.1 hPa WNW 3.2 km/h 5.6 km/h 51% 0.0 mm CLR
Murcia-Puente Tocinos, España
Compliments of Weather Underground - 2.75 mb

La estación de MeteoMurcia.com, publica sus datos en los siguientes proyectos:

Weather Underground PWS IMURCIAP2 Meteoclimatic www.awekas.at

W3Counter
Web Analytics